Time;durP1;ratioP1;P1;durP2;ratioP2;P2;SDS_P1;SDS_P2;PMS_P1;PMS_P2;Temp;Humidity;BMP_temperature;BMP_pressure;BME280_temperature;BME280_humidity;BME280_pressure;Samples;Min_cycle;Max_cycle;Signal;HPM_P1;HPM_P2
2021/05/18 00:02:16;;;;;;;1.07;0.80;;;;;;;9.45;100.00;95990.41;5053339;28;20582;-64
2021/05/18 00:04:42;;;;;;;0.80;0.80;;;;;;;9.49;100.00;95991.56;5053313;28;20202;-56
2021/05/18 00:07:12;;;;;;;0.50;0.50;;;;;;;9.69;100.00;95991.22;5052991;28;20190;-56
2021/05/18 00:12:20;;;;;;;0.70;0.70;;;;;;;9.80;100.00;95993.81;5053639;28;20427;-65
2021/05/18 00:14:46;;;;;;;0.53;0.50;;;;;;;9.61;100.00;95999.41;5053154;28;20899;-56
2021/05/18 00:17:12;;;;;;;0.70;0.50;;;;;;;9.79;100.00;96000.09;5065153;28;20180;-65
2021/05/18 00:19:37;;;;;;;0.77;0.50;;;;;;;9.75;100.00;95998.16;5073283;28;20196;-56
2021/05/18 00:22:03;;;;;;;0.80;0.60;;;;;;;9.79;100.00;95994.84;5072980;28;20177;-64
2021/05/18 00:24:28;;;;;;;0.63;0.50;;;;;;;9.75;100.00;95991.09;5055470;28;20185;-57
2021/05/18 00:26:54;;;;;;;0.53;0.53;;;;;;;9.92;100.00;95993.81;5052806;28;20185;-65
2021/05/18 00:29:20;;;;;;;6.57;0.73;;;;;;;9.72;100.00;95991.56;5052942;28;20264;-63
2021/05/18 00:31:45;;;;;;;0.43;0.43;;;;;;;9.68;100.00;95995.66;5052903;28;20769;-63
2021/05/18 00:34:11;;;;;;;0.60;0.60;;;;;;;9.78;100.00;95997.72;5053067;28;20206;-54
2021/05/18 00:36:36;;;;;;;0.60;0.60;;;;;;;10.02;100.00;95994.81;5055977;28;20178;-63
2021/05/18 00:39:03;;;;;;;1.20;0.60;;;;;;;10.01;100.00;95997.69;5056353;28;20184;-55
2021/05/18 00:41:28;;;;;;;0.90;0.67;;;;;;;9.91;100.00;95994.84;5067155;28;20178;-55
2021/05/18 00:43:54;;;;;;;0.50;0.50;;;;;;;9.67;100.00;95993.25;5076775;28;20406;-63
2021/05/18 00:46:20;;;;;;;0.50;0.50;;;;;;;9.78;100.00;95998.53;5076707;28;20207;-63
2021/05/18 00:48:56;;;;;;;0.60;0.60;;;;;;;9.68;100.00;96003.53;5074906;28;20260;-63
2021/05/18 00:51:22;;;;;;;1.37;0.70;;;;;;;9.75;100.00;96003.41;5076578;28;20395;-55
2021/05/18 00:53:48;;;;;;;0.47;0.47;;;;;;;9.92;100.00;96004.31;5063711;28;21037;-61
2021/05/18 00:59:02;;;;;;;3.80;0.70;;;;;;;9.94;100.00;96012.75;5076168;28;20425;-55
2021/05/18 01:01:28;;;;;;;0.60;0.60;;;;;;;9.74;100.00;96012.31;5076436;28;20415;-63
2021/05/18 01:03:54;;;;;;;0.67;0.67;;;;;;;9.84;100.00;96015.13;5077012;28;20749;-62
2021/05/18 01:08:53;;;;;;;1.03;0.70;;;;;;;10.18;100.00;96014.34;5075866;28;20459;-55
2021/05/18 01:11:22;;;;;;;0.60;0.60;;;;;;;10.09;100.00;96016.50;5076283;28;20410;-55
2021/05/18 01:13:49;;;;;;;0.83;0.70;;;;;;;10.26;100.00;96013.97;5076226;28;20519;-55
2021/05/18 01:16:15;;;;;;;1.17;0.70;;;;;;;10.13;100.00;96019.47;5072481;28;20514;-55
2021/05/18 01:18:44;;;;;;;0.60;0.60;;;;;;;10.23;100.00;96017.88;5055606;28;20843;-54
2021/05/18 01:21:11;;;;;;;1.23;0.50;;;;;;;10.15;100.00;96022.66;5057069;28;20176;-54
2021/05/18 01:23:38;;;;;;;0.93;0.80;;;;;;;10.15;100.00;96028.72;5056012;28;20403;-55
2021/05/18 01:26:04;;;;;;;0.73;0.73;;;;;;;10.26;100.00;96033.16;5056099;28;20495;-63
2021/05/18 01:28:30;;;;;;;1.07;0.60;;;;;;;10.18;100.00;96035.34;5055528;28;20991;-63
2021/05/18 01:30:58;;;;;;;0.87;0.60;;;;;;;9.97;100.00;96039.34;5055681;28;20913;-63
2021/05/18 01:33:24;;;;;;;0.60;0.60;;;;;;;9.83;100.00;96029.28;5054538;28;20453;-55
2021/05/18 01:35:50;;;;;;;0.70;0.47;;;;;;;10.04;100.00;96037.38;5056642;28;20412;-60
2021/05/18 01:38:20;;;;;;;0.60;0.60;;;;;;;9.90;100.00;96041.28;5055253;28;20188;-54
2021/05/18 01:43:30;;;;;;;0.77;0.77;;;;;;;9.86;100.00;96036.69;5056059;28;20403;-55
2021/05/18 01:45:55;;;;;;;1.03;0.60;;;;;;;9.82;100.00;96032.97;5055650;28;20401;-55
2021/05/18 01:48:21;;;;;;;0.83;0.83;;;;;;;10.15;100.00;96012.97;5073452;28;20179;-63
2021/05/18 01:50:48;;;;;;;1.37;0.63;;;;;;;10.24;100.00;96016.03;5074187;28;20217;-62
2021/05/18 01:53:15;;;;;;;0.70;0.70;;;;;;;10.16;100.00;96008.53;5074329;28;20457;-63
2021/05/18 01:55:58;;;;;;;1.33;0.77;;;;;;;10.33;100.00;96012.81;5075492;28;20499;-63
2021/05/18 01:58:24;;;;;;;0.50;0.50;;;;;;;10.05;100.00;96015.38;5074991;28;20773;-63
2021/05/18 02:00:50;;;;;;;0.60;0.60;;;;;;;10.14;100.00;96021.91;5075300;28;20428;-54
2021/05/18 02:03:16;;;;;;;0.60;0.60;;;;;;;9.84;100.00;96023.81;5075339;28;20236;-55
2021/05/18 02:05:42;;;;;;;0.60;0.60;;;;;;;9.83;100.00;96031.91;5075234;28;20882;-54
2021/05/18 02:08:10;;;;;;;1.80;0.70;;;;;;;9.80;100.00;96038.41;5072685;28;20205;-63
2021/05/18 02:10:36;;;;;;;0.60;0.60;;;;;;;9.65;100.00;96034.66;5074989;28;20423;-55
2021/05/18 02:13:01;;;;;;;0.73;0.60;;;;;;;9.71;100.00;96031.13;5073698;28;20859;-54
2021/05/18 02:18:15;;;;;;;1.07;0.67;;;;;;;9.76;100.00;96036.50;5056406;28;20522;-55
2021/05/18 02:20:45;;;;;;;1.07;0.97;;;;;;;9.64;100.00;96039.09;5054785;28;20452;-56
2021/05/18 02:25:55;;;;;;;1.93;1.00;;;;;;;9.46;100.00;96044.44;5054934;28;20776;-62
2021/05/18 02:28:20;;;;;;;1.90;0.70;;;;;;;9.83;100.00;96043.22;5054384;28;20407;-55
2021/05/18 02:30:48;;;;;;;0.80;0.80;;;;;;;9.67;100.00;96043.91;5054646;28;20198;-62
2021/05/18 02:33:14;;;;;;;0.73;0.73;;;;;;;9.67;100.00;96043.91;5054756;28;20231;-63
2021/05/18 02:35:39;;;;;;;0.70;0.70;;;;;;;9.62;100.00;96051.63;5055631;28;20451;-63
2021/05/18 02:38:05;;;;;;;1.60;0.80;;;;;;;9.83;100.00;96043.22;5054291;28;20194;-62
2021/05/18 02:40:33;;;;;;;1.53;0.70;;;;;;;9.98;100.00;96050.63;5053149;28;20209;-54
2021/05/18 02:42:59;;;;;;;0.63;0.63;;;;;;;9.93;100.00;96051.31;5054519;28;20506;-62
2021/05/18 02:50:35;;;;;;;1.43;0.90;;;;;;;10.19;100.00;96055.31;5054552;28;20208;-63
2021/05/18 02:53:00;;;;;;;0.60;0.60;;;;;;;10.08;100.00;96056.09;5054012;28;20452;-63
2021/05/18 02:55:36;;;;;;;0.67;0.67;;;;;;;10.18;100.00;96054.50;5054353;28;20186;-62
2021/05/18 02:58:01;;;;;;;1.57;0.87;;;;;;;10.44;100.00;96058.47;5053162;28;20235;-55
2021/05/18 03:00:27;;;;;;;0.90;0.90;;;;;;;10.48;100.00;96056.97;5054376;28;20923;-59
2021/05/18 03:02:52;;;;;;;1.30;1.00;;;;;;;10.44;100.00;96060.28;5055064;28;20644;-62
2021/05/18 03:05:22;;;;;;;0.80;0.60;;;;;;;10.06;100.00;96058.16;5055149;28;20220;-63
2021/05/18 03:07:47;;;;;;;1.70;1.00;;;;;;;10.25;100.00;96060.44;5064093;28;20549;-54
2021/05/18 03:10:15;;;;;;;1.17;0.80;;;;;;;10.60;100.00;96055.09;5062214;28;20437;-55
2021/05/18 03:12:40;;;;;;;1.17;1.10;;;;;;;10.53;100.00;96056.25;5053976;28;20166;-55
2021/05/18 03:15:06;;;;;;;0.90;0.90;;;;;;;10.74;100.00;96060.91;5053806;28;20416;-60
2021/05/18 03:17:32;;;;;;;2.30;1.00;;;;;;;10.66;100.00;96059.44;5068463;28;20512;-60
2021/05/18 03:19:58;;;;;;;1.07;1.00;;;;;;;10.24;100.00;96066.72;5071760;28;20445;-54
2021/05/18 03:22:23;;;;;;;1.27;1.07;;;;;;;10.11;100.00;96053.03;5056440;28;20461;-54
2021/05/18 03:24:49;;;;;;;0.90;0.90;;;;;;;9.75;100.00;96055.88;5053871;28;20692;-54
2021/05/18 03:27:14;;;;;;;1.90;1.00;;;;;;;9.89;100.00;96055.41;5053417;28;20671;-60
2021/05/18 03:29:40;;;;;;;0.70;0.60;;;;;;;10.28;100.00;96053.94;5053777;28;20277;-54
2021/05/18 03:34:50;;;;;;;0.80;0.80;;;;;;;9.92;100.00;96046.28;5057465;28;20819;-54
2021/05/18 03:37:22;;;;;;;1.30;0.73;;;;;;;9.97;100.00;96052.44;5073336;28;20411;-59
2021/05/18 03:39:50;;;;;;;0.63;0.63;;;;;;;9.79;100.00;96063.06;5071403;28;20670;-60
2021/05/18 03:42:26;;;;;;;1.23;1.00;;;;;;;9.90;100.00;96067.53;5073640;28;20413;-60
2021/05/18 03:53:10;;;;;;;0.60;0.60;;;;;;;9.51;100.00;96076.03;5053625;28;20425;-54
2021/05/18 04:12:16;;;;;;;1.97;1.20;;;;;;;9.40;100.00;96083.88;5077481;28;20404;-56
2021/05/18 04:17:27;;;;;;;0.70;0.60;;;;;;;9.62;100.00;96088.34;5076888;28;20930;-57
2021/05/18 04:22:56;;;;;;;1.63;1.00;;;;;;;9.92;100.00;96091.72;5077608;28;20416;-56
2021/05/18 04:39:03;;;;;;;2.10;0.87;;;;;;;9.89;100.00;96114.97;5056753;28;20769;-60
2021/05/18 04:42:40;;;;;;;2.40;1.30;;;;;;;9.87;100.00;96115.22;5056784;28;20494;-54
2021/05/18 04:59:01;;;;;;;1.53;0.90;;;;;;;9.67;100.00;96142.78;5056498;28;20495;-54
2021/05/18 05:03:43;;;;;;;0.83;0.80;;;;;;;9.58;100.00;96144.13;5057640;28;20402;-57
2021/05/18 05:08:48;;;;;;;0.90;0.90;;;;;;;9.81;100.00;96139.72;5076015;28;20398;-62
2021/05/18 05:16:25;;;;;;;0.80;0.80;;;;;;;10.33;100.00;96146.75;5076379;28;20689;-56
2021/05/18 05:18:51;;;;;;;1.10;1.00;;;;;;;10.38;100.00;96166.28;5074034;28;20429;-56
2021/05/18 05:21:19;;;;;;;1.37;0.83;;;;;;;10.75;100.00;96165.78;5075425;28;20501;-63
2021/05/18 05:23:44;;;;;;;2.77;1.00;;;;;;;10.54;100.00;96165.56;5076013;28;20533;-63
2021/05/18 05:26:10;;;;;;;1.00;1.00;;;;;;;10.46;100.00;96160.66;5076002;28;20413;-57
2021/05/18 05:28:35;;;;;;;1.43;1.33;;;;;;;10.64;100.00;96160.53;5075126;28;20264;-56
2021/05/18 05:31:00;;;;;;;1.20;0.80;;;;;;;10.73;100.00;96165.22;5075839;28;20261;-62
2021/05/18 05:33:26;;;;;;;0.97;0.97;;;;;;;10.53;100.00;96164.78;5070091;28;20198;-60
2021/05/18 05:35:51;;;;;;;1.87;1.20;;;;;;;10.75;100.00;96170.22;5055620;28;20171;-61
2021/05/18 05:38:19;;;;;;;1.20;0.90;;;;;;;10.86;100.00;96157.06;5055335;28;20171;-60
2021/05/18 05:40:45;;;;;;;0.60;0.60;;;;;;;10.49;100.00;96157.59;5055501;28;20281;-55
2021/05/18 05:43:10;;;;;;;0.70;0.70;;;;;;;10.50;100.00;96159.19;5055743;28;20437;-60
2021/05/18 05:45:35;;;;;;;0.83;0.83;;;;;;;10.76;100.00;96169.22;5055892;28;20706;-61
2021/05/18 05:48:01;;;;;;;0.90;0.90;;;;;;;10.68;100.00;96172.19;5055087;28;20608;-55
2021/05/18 05:50:26;;;;;;;0.97;0.83;;;;;;;10.55;100.00;96178.47;5054275;28;20194;-54
2021/05/18 05:52:52;;;;;;;1.57;1.20;;;;;;;10.72;100.00;96174.13;5055305;28;20186;-54
2021/05/18 05:55:17;;;;;;;1.00;1.00;;;;;;;10.25;100.00;96173.34;5055342;28;20189;-60
2021/05/18 05:57:43;;;;;;;1.20;1.20;;;;;;;10.17;100.00;96176.31;5054915;28;20257;-60
2021/05/18 06:00:11;;;;;;;1.80;1.33;;;;;;;10.33;100.00;96190.59;5055220;28;20217;-54
2021/05/18 06:02:37;;;;;;;1.30;1.20;;;;;;;10.45;100.00;96187.97;5055268;28;20171;-61
2021/05/18 06:05:02;;;;;;;4.97;1.90;;;;;;;10.28;100.00;96187.84;5056241;28;20784;-54
2021/05/18 06:07:28;;;;;;;1.40;1.30;;;;;;;10.41;100.00;96190.25;5061480;28;20178;-54
2021/05/18 06:10:10;;;;;;;2.33;1.40;;;;;;;10.28;100.00;96186.03;5075044;28;20273;-60
2021/05/18 06:34:32;;;;;;;2.20;1.03;;;;;;;10.52;100.00;96199.97;5053607;28;20519;-54
2021/05/18 06:47:46;;;;;;;1.73;1.00;;;;;;;10.98;100.00;96209.63;5074386;28;20585;-54
2021/05/18 06:52:38;;;;;;;2.50;0.93;;;;;;;11.28;100.00;96213.69;5054189;28;20645;-54
2021/05/18 06:55:07;;;;;;;2.20;1.00;;;;;;;11.10;99.67;96219.09;5054241;28;20418;-54
2021/05/18 06:57:35;;;;;;;1.17;1.07;;;;;;;11.45;99.35;96216.34;5054932;28;20425;-55
2021/05/18 07:00:11;;;;;;;1.10;1.10;;;;;;;11.87;98.21;96227.41;5058751;28;20514;-55
2021/05/18 07:02:39;;;;;;;1.70;1.03;;;;;;;11.77;98.31;96225.41;5074256;28;20412;-54
2021/05/18 07:05:15;;;;;;;1.00;0.90;;;;;;;12.04;97.02;96231.69;5074120;28;20416;-63
2021/05/18 07:07:42;;;;;;;0.87;0.80;;;;;;;11.89;95.29;96222.72;5073680;28;20416;-55
2021/05/18 07:10:08;;;;;;;2.17;1.00;;;;;;;11.79;95.55;96218.09;5072705;28;20868;-62
2021/05/18 07:12:36;;;;;;;1.83;0.90;;;;;;;11.60;97.09;96223.72;5066338;28;20517;-54
2021/05/18 07:15:02;;;;;;;1.90;0.93;;;;;;;12.26;95.66;96227.31;5054896;28;20496;-55
2021/05/18 07:17:27;;;;;;;2.93;0.90;;;;;;;12.33;94.99;96225.31;5068054;28;20456;-61
2021/05/18 07:19:52;;;;;;;1.57;1.00;;;;;;;12.35;93.84;96233.78;5073970;28;20236;-54
2021/05/18 07:22:18;;;;;;;1.10;1.00;;;;;;;11.95;94.24;96238.38;5073712;28;20183;-55
2021/05/18 07:24:43;;;;;;;0.80;0.80;;;;;;;12.23;92.70;96229.59;5073810;28;20676;-55
2021/05/18 07:27:09;;;;;;;0.87;0.83;;;;;;;12.37;94.17;96236.19;5055270;28;20178;-54
2021/05/18 07:29:34;;;;;;;2.20;0.90;;;;;;;12.16;93.08;96228.97;5072547;28;20653;-59
2021/05/18 07:32:00;;;;;;;1.00;1.00;;;;;;;12.71;92.94;96224.56;5053583;28;20896;-62
2021/05/18 07:34:25;;;;;;;2.50;0.90;;;;;;;12.34;93.89;96224.28;5053907;28;20696;-62
2021/05/18 07:36:51;;;;;;;1.80;1.00;;;;;;;12.27;91.45;96221.00;5053397;28;20230;-61
2021/05/18 07:39:16;;;;;;;1.33;0.87;;;;;;;12.07;94.13;96225.94;5062927;28;20252;-62
2021/05/18 07:41:42;;;;;;;1.03;0.80;;;;;;;12.25;90.98;96225.72;5073628;28;20167;-54
2021/05/18 07:44:07;;;;;;;1.90;1.07;;;;;;;12.15;90.18;96222.94;5070967;28;20201;-54
2021/05/18 07:46:33;;;;;;;2.47;1.20;;;;;;;12.34;88.95;96232.19;5073489;28;20253;-62
2021/05/18 08:07:19;;;;;;;1.03;0.93;;;;;;;11.85;90.00;96237.41;5072482;28;20794;-60
2021/05/18 08:09:52;;;;;;;2.73;1.17;;;;;;;12.17;88.85;96226.09;5071816;28;20432;-58
2021/05/18 08:12:18;;;;;;;4.73;1.20;;;;;;;12.17;89.91;96231.34;5069721;28;20261;-60
2021/05/18 08:14:49;;;;;;;3.33;1.20;;;;;;;11.72;93.31;96235.84;5069167;28;20982;-55
2021/05/18 08:17:25;;;;;;;1.33;1.10;;;;;;;12.16;91.39;96229.78;5068040;28;20178;-60
2021/05/18 10:35:54;;;;;;;0.93;0.93;;;;;;;13.15;90.55;96165.56;5073576;28;20417;-56
2021/05/18 10:38:25;;;;;;;2.63;1.00;;;;;;;13.36;84.83;96156.06;5070524;28;20178;-56
2021/05/18 10:40:53;;;;;;;2.70;1.00;;;;;;;13.08;78.83;96149.13;5074301;28;20510;-56
2021/05/18 10:43:21;;;;;;;2.50;0.80;;;;;;;13.23;78.37;96151.97;5067429;28;20853;-65
2021/05/18 10:46:03;;;;;;;2.73;1.07;;;;;;;13.21;76.88;96145.31;5070235;28;20779;-56
2021/05/18 10:48:31;;;;;;;1.90;0.83;;;;;;;13.39;75.45;96152.91;5066376;28;20445;-63
2021/05/18 10:50:56;;;;;;;1.33;0.80;;;;;;;13.69;78.03;96139.22;5055173;28;20456;-64
2021/05/18 10:53:23;;;;;;;1.10;0.90;;;;;;;13.87;75.01;96154.69;5065621;28;20540;-65
2021/05/18 10:56:06;;;;;;;3.27;0.93;;;;;;;14.08;71.86;96151.16;5068924;28;20179;-65
2021/05/18 10:58:32;;;;;;;3.17;0.90;;;;;;;13.79;71.53;96155.16;5056721;28;20414;-56
2021/05/18 11:00:59;;;;;;;2.10;0.93;;;;;;;13.90;71.40;96152.34;5072074;28;20486;-58
2021/05/18 11:03:24;;;;;;;2.20;0.60;;;;;;;14.13;70.37;96152.00;5063296;28;20229;-66
2021/05/18 11:05:51;;;;;;;2.60;0.97;;;;;;;14.13;73.04;96153.88;5069266;28;20429;-65
2021/05/18 11:08:17;;;;;;;2.03;0.80;;;;;;;14.31;68.42;96148.22;5067676;28;20554;-65
2021/05/18 11:10:44;;;;;;;0.60;0.60;;;;;;;14.86;69.02;96159.13;5053924;28;20434;-59
2021/05/18 11:13:10;;;;;;;1.70;1.00;;;;;;;14.40;72.67;96146.69;5053760;28;20453;-65
2021/05/18 11:15:36;;;;;;;3.27;1.00;;;;;;;14.19;69.54;96150.19;5057198;28;20421;-65
2021/05/18 11:18:03;;;;;;;1.40;0.83;;;;;;;14.41;70.02;96154.38;5063782;28;20186;-56
2021/05/18 11:25:52;;;;;;;2.30;0.90;;;;;;;14.39;69.58;96140.63;5056191;28;20454;-65
2021/05/18 11:28:26;;;;;;;1.90;0.70;;;;;;;14.64;67.56;96139.19;5071572;28;20429;-65
2021/05/18 11:31:00;;;;;;;1.30;0.87;;;;;;;14.57;64.37;96146.53;5065449;28;20958;-57
2021/05/18 11:33:45;;;;;;;0.77;0.73;;;;;;;14.55;68.12;96165.28;5072744;28;20457;-65
2021/05/18 11:36:20;;;;;;;4.00;0.83;;;;;;;13.35;78.21;96186.13;5073213;28;21033;-56
2021/05/18 11:38:54;;;;;;;0.90;0.60;;;;;;;12.61;79.68;96184.09;5073116;28;20424;-56
2021/05/18 11:41:31;;;;;;;1.90;0.90;;;;;;;12.67;80.59;96175.19;5073636;28;20492;-57
2021/05/18 11:43:59;;;;;;;1.33;0.60;;;;;;;12.34;76.05;96176.03;5068377;28;20419;-56
2021/05/18 11:46:27;;;;;;;0.50;0.50;;;;;;;12.17;80.38;96170.78;5053509;28;20484;-65
2021/05/18 11:49:02;;;;;;;1.00;0.63;;;;;;;12.40;79.03;96167.19;5072341;28;20448;-65
2021/05/18 11:51:30;;;;;;;0.60;0.60;;;;;;;12.92;75.59;96170.25;5073102;28;20404;-65
2021/05/18 11:54:02;;;;;;;1.07;0.50;;;;;;;12.36;79.21;96177.41;5070888;28;20509;-66
2021/05/18 11:56:30;;;;;;;1.83;0.90;;;;;;;12.55;80.31;96170.03;5073225;28;20397;-65
2021/05/18 11:58:59;;;;;;;1.60;0.90;;;;;;;12.87;77.48;96165.72;5072566;28;20883;-57
2021/05/18 12:01:24;;;;;;;2.17;0.63;;;;;;;13.16;75.47;96169.81;5072116;28;20412;-57
2021/05/18 12:04:03;;;;;;;0.43;0.40;;;;;;;12.99;75.49;96147.16;5067450;28;20816;-58
2021/05/18 12:06:28;;;;;;;1.13;0.60;;;;;;;13.04;75.60;96136.69;5053884;28;20706;-57
2021/05/18 12:08:58;;;;;;;0.80;0.40;;;;;;;13.12;75.83;96138.88;5052483;28;20433;-66
2021/05/18 12:11:24;;;;;;;2.87;1.00;;;;;;;12.98;76.56;96124.44;5052993;28;20171;-57
2021/05/18 12:13:51;;;;;;;0.83;0.60;;;;;;;13.40;75.30;96120.22;5052911;28;20449;-66
2021/05/18 12:16:20;;;;;;;1.50;0.67;;;;;;;13.22;75.57;96126.63;5053048;28;20401;-58
2021/05/18 12:18:51;;;;;;;1.27;0.50;;;;;;;13.22;70.04;96118.72;5051296;28;20422;-57
2021/05/18 12:21:28;;;;;;;1.13;0.60;;;;;;;13.67;69.54;96114.91;5053907;28;20924;-57
2021/05/18 12:24:13;;;;;;;1.30;0.70;;;;;;;13.62;74.99;96110.41;5052839;28;20879;-56
2021/05/18 12:26:46;;;;;;;3.20;0.90;;;;;;;13.88;70.92;96125.38;5052825;28;20406;-66
2021/05/18 12:29:41;;;;;;;1.37;0.63;;;;;;;14.03;66.84;96117.59;5052151;28;20426;-57
2021/05/18 12:32:23;;;;;;;1.13;0.97;;;;;;;14.12;69.50;96113.44;5056553;28;20470;-65
2021/05/18 12:34:51;;;;;;;1.57;0.80;;;;;;;14.66;66.26;96111.41;5072140;28;20540;-57
2021/05/18 12:37:17;;;;;;;1.03;0.90;;;;;;;14.59;66.10;96115.34;5076176;28;20409;-66
2021/05/18 12:39:45;;;;;;;2.00;0.60;;;;;;;15.12;66.15;96120.34;5076591;28;20483;-66
2021/05/18 12:42:15;;;;;;;2.03;0.80;;;;;;;14.41;62.44;96117.38;5076490;28;20412;-65
2021/05/18 12:44:55;;;;;;;1.23;0.70;;;;;;;14.42;64.30;96115.53;5076702;28;20392;-66
2021/05/18 12:47:41;;;;;;;1.73;0.70;;;;;;;14.26;69.21;96138.41;5076519;28;20914;-65
2021/05/18 12:50:09;;;;;;;0.70;0.70;;;;;;;14.50;68.37;96119.50;5062906;28;20475;-57
2021/05/18 12:52:38;;;;;;;1.00;0.70;;;;;;;14.72;69.25;96115.69;5056389;28;20425;-57
2021/05/18 12:55:12;;;;;;;0.60;0.60;;;;;;;15.17;63.43;96107.91;5056481;28;20460;-57
2021/05/18 12:57:49;;;;;;;0.80;0.57;;;;;;;15.70;66.53;96106.75;5056339;28;20409;-57
2021/05/18 13:00:15;;;;;;;1.60;0.70;;;;;;;16.12;66.34;96109.13;5056320;28;20842;-67
2021/05/18 13:02:46;;;;;;;2.80;0.80;;;;;;;16.33;64.13;96097.44;5057575;28;20410;-66
2021/05/18 13:05:15;;;;;;;0.60;0.60;;;;;;;15.65;61.21;96109.38;5073472;28;20861;-57
2021/05/18 13:07:42;;;;;;;0.83;0.60;;;;;;;15.27;63.91;96115.09;5076067;28;20887;-65
2021/05/18 13:10:19;;;;;;;0.77;0.47;;;;;;;14.52;66.12;96118.22;5076170;28;20769;-57
2021/05/18 13:12:45;;;;;;;1.17;0.63;;;;;;;14.39;66.79;96123.94;5076048;28;20416;-66
2021/05/18 13:15:18;;;;;;;1.80;0.70;;;;;;;14.21;67.80;96126.97;5076044;28;20536;-56
2021/05/18 13:17:55;;;;;;;1.43;0.60;;;;;;;14.29;64.88;96118.59;5065583;28;20417;-57
2021/05/18 13:20:21;;;;;;;6.43;0.67;;;;;;;14.79;60.99;96118.09;5051106;28;20858;-57
2021/05/18 13:22:51;;;;;;;1.10;0.50;;;;;;;14.90;61.48;96114.44;5052559;28;20417;-63
2021/05/18 13:28:03;;;;;;;0.67;0.50;;;;;;;15.60;59.24;96113.88;5052293;28;20772;-56
2021/05/18 13:30:30;;;;;;;0.40;0.30;;;;;;;15.62;57.81;96112.53;5051929;28;20426;-59
2021/05/18 13:32:56;;;;;;;1.63;0.40;;;;;;;15.50;55.49;96114.66;5057458;28;20925;-66
2021/05/18 13:35:24;;;;;;;0.80;0.40;;;;;;;15.41;56.41;96119.69;5055751;28;20541;-63
2021/05/18 13:37:50;;;;;;;0.60;0.60;;;;;;;15.20;58.32;96114.56;5051931;28;20497;-66
2021/05/18 13:40:17;;;;;;;1.40;0.60;;;;;;;14.94;60.32;96123.44;5052177;28;20432;-66
2021/05/18 13:42:43;;;;;;;1.23;0.70;;;;;;;14.95;61.83;96117.09;5051004;28;20881;-59
2021/05/18 13:45:10;;;;;;;0.77;0.60;;;;;;;14.89;63.96;96112.84;5052164;28;20405;-60
2021/05/18 13:47:35;;;;;;;0.50;0.50;;;;;;;14.78;65.33;96121.78;5060160;28;20425;-66
2021/05/18 13:50:01;;;;;;;1.33;0.63;;;;;;;14.27;69.84;96118.88;5071169;28;20438;-67
2021/05/18 13:52:27;;;;;;;2.20;0.70;;;;;;;14.56;69.36;96100.78;5071847;28;20183;-60
2021/05/18 13:54:54;;;;;;;1.27;0.50;;;;;;;14.28;70.43;96103.78;5071472;28;20449;-67
2021/05/18 13:57:20;;;;;;;1.60;0.60;;;;;;;14.02;72.58;96125.78;5071208;28;20179;-67
2021/05/18 13:59:45;;;;;;;3.30;0.60;;;;;;;13.76;66.06;96116.84;5071894;28;20771;-60
2021/05/18 14:02:11;;;;;;;2.10;0.60;;;;;;;13.46;66.87;96128.97;5071075;28;20634;-60
2021/05/18 14:04:36;;;;;;;1.23;0.60;;;;;;;13.10;68.99;96130.41;5051785;28;20171;-63
2021/05/18 14:10:13;;;;;;;1.50;0.70;;;;;;;13.30;75.68;96128.00;5071515;28;20566;-59
2021/05/18 14:12:39;;;;;;;1.87;0.70;;;;;;;13.56;76.61;96118.50;5071649;28;20401;-59
2021/05/18 14:15:05;;;;;;;0.67;0.67;;;;;;;13.89;73.64;96120.91;5069903;28;20969;-64
2021/05/18 14:17:30;;;;;;;0.53;0.53;;;;;;;13.99;73.81;96113.06;5071167;28;20186;-65
2021/05/18 14:19:55;;;;;;;0.70;0.70;;;;;;;14.31;73.31;96116.50;5070954;28;20474;-65
2021/05/18 14:22:21;;;;;;;0.60;0.60;;;;;;;14.77;69.46;96114.91;5070606;28;20174;-60
2021/05/18 14:25:04;;;;;;;0.70;0.70;;;;;;;14.16;65.96;96117.16;5071431;28;20174;-66
2021/05/18 14:27:30;;;;;;;0.60;0.50;;;;;;;14.36;66.16;96114.69;5071047;28;20165;-67
2021/05/18 14:29:55;;;;;;;0.60;0.60;;;;;;;14.18;64.94;96107.16;5070642;28;20428;-62
2021/05/18 14:32:20;;;;;;;0.50;0.50;;;;;;;14.33;66.29;96115.19;5069272;28;20444;-61
2021/05/18 14:34:46;;;;;;;1.63;0.70;;;;;;;14.64;65.29;96116.16;5069209;28;20206;-67
2021/05/18 14:37:12;;;;;;;0.63;0.50;;;;;;;14.36;64.66;96108.59;5056957;28;20187;-59
2021/05/18 14:45:05;;;;;;;0.90;0.63;;;;;;;14.75;62.98;96082.63;5051960;28;20428;-60
2021/05/18 14:47:39;;;;;;;0.97;0.40;;;;;;;14.30;62.96;96097.22;5049249;28;20517;-66
2021/05/18 14:55:32;;;;;;;0.83;0.50;;;;;;;14.60;61.32;96095.78;5049810;28;20402;-60
2021/05/18 14:57:58;;;;;;;0.97;0.40;;;;;;;14.35;61.76;96099.06;5050562;28;20406;-64
2021/05/18 15:00:23;;;;;;;0.60;0.37;;;;;;;14.05;63.96;96102.28;5051682;28;20183;-64
2021/05/18 15:02:48;;;;;;;0.60;0.50;;;;;;;14.14;63.95;96105.25;5050863;28;20167;-64
2021/05/18 15:05:16;;;;;;;0.87;0.50;;;;;;;14.28;63.84;96086.09;5049598;28;20171;-67
2021/05/18 15:07:42;;;;;;;0.80;0.60;;;;;;;14.39;63.70;96093.03;5065781;28;20522;-64
2021/05/18 15:10:09;;;;;;;1.23;0.73;;;;;;;14.42;63.78;96091.72;5070968;28;20452;-69
2021/05/18 15:12:34;;;;;;;2.00;0.70;;;;;;;14.76;63.58;96086.88;5070412;28;20459;-63
2021/05/18 15:15:00;;;;;;;2.57;0.70;;;;;;;15.27;60.95;96084.13;5070428;28;20452;-60
2021/05/18 15:17:25;;;;;;;1.23;0.50;;;;;;;15.73;60.66;96092.16;5070076;28;20326;-66
2021/05/18 15:19:53;;;;;;;1.20;0.70;;;;;;;16.62;59.17;96085.19;5069456;28;20182;-59
2021/05/18 15:22:18;;;;;;;2.43;0.80;;;;;;;16.85;55.75;96081.91;5051216;28;20179;-59
2021/05/18 15:24:44;;;;;;;0.50;0.50;;;;;;;17.29;54.82;96079.31;5050293;28;20888;-63
2021/05/18 15:27:10;;;;;;;0.80;0.63;;;;;;;17.59;53.02;96076.53;5049893;28;20810;-60
2021/05/18 15:29:35;;;;;;;3.07;0.80;;;;;;;17.20;53.44;96079.13;5050003;28;20712;-64
2021/05/18 15:32:01;;;;;;;0.80;0.60;;;;;;;16.86;54.57;96080.06;5056675;28;20445;-57
2021/05/18 15:34:27;;;;;;;1.03;0.60;;;;;;;17.47;53.65;96076.06;5058217;28;20728;-61
2021/05/18 15:36:54;;;;;;;0.90;0.50;;;;;;;17.29;53.04;96084.63;5049657;28;20418;-64
2021/05/18 15:39:20;;;;;;;1.10;0.70;;;;;;;17.83;52.15;96077.38;5050086;28;20210;-63
2021/05/18 15:41:45;;;;;;;2.17;0.87;;;;;;;18.97;50.87;96081.84;5050162;28;20982;-65
2021/05/18 15:44:11;;;;;;;1.23;0.70;;;;;;;18.48;50.14;96081.34;5049480;28;20671;-60
2021/05/18 15:46:37;;;;;;;3.10;0.60;;;;;;;19.66;48.57;96078.53;5049920;28;20179;-65
2021/05/18 15:49:03;;;;;;;2.43;0.70;;;;;;;20.46;44.01;96090.59;5054843;28;20195;-63
2021/05/18 15:51:30;;;;;;;1.80;0.60;;;;;;;19.42;45.43;96081.28;5069890;28;20474;-61
2021/05/18 15:53:55;;;;;;;1.60;0.80;;;;;;;18.82;48.19;96071.41;5068963;28;20233;-66
2021/05/18 15:56:22;;;;;;;1.23;0.60;;;;;;;17.20;51.79;96078.31;5069479;28;20448;-65
2021/05/18 15:58:47;;;;;;;1.30;1.00;;;;;;;17.19;53.01;96068.78;5069444;28;20167;-64
2021/05/18 16:01:13;;;;;;;1.23;0.60;;;;;;;16.76;54.36;96074.81;5067819;28;20433;-61
2021/05/18 16:03:39;;;;;;;2.20;0.93;;;;;;;15.85;56.68;96074.94;5069788;28;20287;-65
2021/05/18 16:06:04;;;;;;;4.43;0.70;;;;;;;15.44;60.50;96083.91;5069265;28;20179;-64
2021/05/18 16:10:58;;;;;;;1.20;0.60;;;;;;;15.63;61.12;96090.31;5069873;28;20197;-60
2021/05/18 16:13:24;;;;;;;0.97;0.60;;;;;;;15.35;60.21;96085.47;5059835;28;20210;-65
2021/05/18 16:15:51;;;;;;;2.93;0.67;;;;;;;15.49;62.29;96091.84;5050656;28;20426;-65
2021/05/18 16:18:17;;;;;;;0.60;0.50;;;;;;;15.78;59.25;96100.91;5048624;28;20422;-61
2021/05/18 16:20:42;;;;;;;0.53;0.40;;;;;;;15.82;58.95;96095.88;5049599;28;20478;-59
2021/05/18 16:23:09;;;;;;;1.47;0.43;;;;;;;15.99;59.98;96086.59;5049684;28;20298;-61
2021/05/18 16:25:35;;;;;;;0.50;0.50;;;;;;;16.23;59.59;96108.06;5049598;28;20182;-60
2021/05/18 16:28:00;;;;;;;1.57;0.50;;;;;;;16.25;60.45;96096.09;5049320;28;20422;-61
2021/05/18 16:30:25;;;;;;;0.87;0.70;;;;;;;16.29;60.95;96102.47;5065241;28;20202;-61
2021/05/18 16:32:51;;;;;;;1.07;0.80;;;;;;;16.08;63.56;96092.97;5069447;28;20171;-61
2021/05/18 16:35:16;;;;;;;0.73;0.50;;;;;;;15.89;61.50;96091.13;5069428;28;20194;-65
2021/05/18 16:37:43;;;;;;;1.33;0.60;;;;;;;15.82;63.11;96096.66;5069187;28;20172;-61
2021/05/18 16:40:09;;;;;;;1.30;0.50;;;;;;;15.94;61.79;96093.75;5069522;28;20183;-61
2021/05/18 16:42:36;;;;;;;1.10;0.47;;;;;;;15.86;61.67;96097.72;5066460;28;20417;-65